createdAt,value
2023-05-06T00:01:22.280Z,25.83
2023-05-06T00:03:02.045Z,25.83
2023-05-06T00:04:41.806Z,25.83
2023-05-06T00:06:21.574Z,25.83
2023-05-06T00:08:01.353Z,25.83
2023-05-06T00:09:41.104Z,25.83
2023-05-06T00:11:20.878Z,25.82
2023-05-06T00:13:00.649Z,25.82
2023-05-06T00:14:40.409Z,25.82
2023-05-06T00:16:20.177Z,25.82
2023-05-06T00:17:59.944Z,25.81
2023-05-06T00:19:39.728Z,25.81
2023-05-06T00:21:19.496Z,25.79
2023-05-06T00:22:59.246Z,25.81
2023-05-06T00:24:39.017Z,25.81
2023-05-06T00:26:18.790Z,25.81
2023-05-06T00:27:58.534Z,25.81
2023-05-06T00:29:38.330Z,25.81
2023-05-06T00:31:18.100Z,25.8
2023-05-06T00:32:57.866Z,25.81
2023-05-06T00:34:37.627Z,25.8
2023-05-06T00:36:17.391Z,25.8
2023-05-06T00:37:57.161Z,25.8
2023-05-06T00:39:36.926Z,25.8
2023-05-06T00:41:16.701Z,25.79
2023-05-06T00:42:56.453Z,25.79
2023-05-06T00:44:36.247Z,25.8
2023-05-06T00:46:16.025Z,25.75
2023-05-06T00:47:55.767Z,25.79
2023-05-06T00:49:35.541Z,25.79
2023-05-06T00:51:15.310Z,25.79
2023-05-06T00:52:55.067Z,25.78
2023-05-06T00:54:34.843Z,25.79
2023-05-06T00:56:14.596Z,25.79
2023-05-06T00:57:54.372Z,25.79
2023-05-06T00:59:34.146Z,25.79
2023-05-06T01:01:13.910Z,25.78
2023-05-06T01:02:53.674Z,25.79
2023-05-06T01:04:33.436Z,25.78
2023-05-06T01:06:13.202Z,25.78
2023-05-06T01:07:52.968Z,25.78
2023-05-06T01:09:32.734Z,25.77
2023-05-06T01:11:12.522Z,25.73
2023-05-06T01:12:52.288Z,25.77
2023-05-06T01:14:32.053Z,25.77
2023-05-06T01:16:11.814Z,25.76
2023-05-06T01:17:51.574Z,25.77
2023-05-06T01:19:31.347Z,25.76
2023-05-06T01:21:11.113Z,25.76
2023-05-06T01:22:50.895Z,25.76
2023-05-06T01:24:30.648Z,25.76
2023-05-06T01:26:10.421Z,25.75
2023-05-06T01:27:50.195Z,25.76
2023-05-06T01:29:29.949Z,25.76
2023-05-06T01:31:09.738Z,25.75
2023-05-06T01:32:49.621Z,25.75
2023-05-06T01:34:29.393Z,25.75
2023-05-06T01:36:09.166Z,25.75
2023-05-06T01:37:48.924Z,25.74
2023-05-06T01:39:28.686Z,25.7
2023-05-06T01:41:08.484Z,25.74
2023-05-06T01:42:48.231Z,25.74
2023-05-06T01:44:28.000Z,25.74
2023-05-06T01:46:07.775Z,25.74
2023-05-06T01:47:47.538Z,25.74
2023-05-06T01:49:27.296Z,25.74
2023-05-06T01:51:07.106Z,25.73
2023-05-06T01:52:46.834Z,25.74
2023-05-06T01:54:26.597Z,25.74
2023-05-06T01:56:06.363Z,25.74
2023-05-06T01:57:46.125Z,25.73
2023-05-06T01:59:25.899Z,25.73
2023-05-06T02:01:05.675Z,25.73
2023-05-06T02:02:45.432Z,25.72
2023-05-06T02:04:25.195Z,25.6
2023-05-06T02:06:04.976Z,25.73
2023-05-06T02:07:44.750Z,25.72
2023-05-06T02:09:24.503Z,25.72
2023-05-06T02:11:04.284Z,25.72
2023-05-06T02:12:44.047Z,25.72
2023-05-06T02:14:23.802Z,25.72
2023-05-06T02:16:03.585Z,25.72
2023-05-06T02:17:43.345Z,25.72
2023-05-06T02:19:23.103Z,25.71
2023-05-06T02:21:02.895Z,25.72
2023-05-06T02:22:42.653Z,25.71
2023-05-06T02:24:22.425Z,25.71
2023-05-06T02:26:02.189Z,25.71
2023-05-06T02:27:41.958Z,25.71
2023-05-06T02:29:21.714Z,25.55
2023-05-06T02:31:01.469Z,25.71
2023-05-06T02:32:41.250Z,25.71
2023-05-06T02:34:21.030Z,25.71
2023-05-06T02:36:00.787Z,25.71
2023-05-06T02:37:40.548Z,25.71
2023-05-06T02:39:20.334Z,25.7
2023-05-06T02:41:00.092Z,25.71
2023-05-06T02:42:39.868Z,25.7
2023-05-06T02:44:19.604Z,25.71
2023-05-06T02:45:59.404Z,25.7
2023-05-06T02:47:39.245Z,25.7
2023-05-06T02:49:18.913Z,25.7
2023-05-06T02:50:58.699Z,25.7
2023-05-06T02:52:38.466Z,25.7
2023-05-06T02:54:18.225Z,25.54
2023-05-06T02:55:57.990Z,25.7
2023-05-06T02:57:37.774Z,25.7
2023-05-06T02:59:17.529Z,25.7
2023-05-06T03:00:57.292Z,25.7
2023-05-06T03:02:37.069Z,25.7
2023-05-06T03:04:16.825Z,25.7
2023-05-06T03:05:56.596Z,25.69
2023-05-06T03:07:36.364Z,25.7
2023-05-06T03:09:16.116Z,25.7
2023-05-06T03:10:55.894Z,25.7
2023-05-06T03:12:35.665Z,25.7
2023-05-06T03:14:15.435Z,25.7
2023-05-06T03:15:55.198Z,25.69
2023-05-06T03:17:34.962Z,25.68
2023-05-06T03:19:14.735Z,25.55
2023-05-06T03:20:54.500Z,25.67
2023-05-06T03:22:34.288Z,25.67
2023-05-06T03:24:14.034Z,25.66
2023-05-06T03:25:53.797Z,25.66
2023-05-06T03:27:33.579Z,25.65
2023-05-06T03:29:13.329Z,25.65
2023-05-06T03:30:53.111Z,25.65
2023-05-06T03:32:32.877Z,25.65
2023-05-06T03:34:12.639Z,25.66
2023-05-06T03:35:52.414Z,25.66
2023-05-06T03:37:32.177Z,25.66
2023-05-06T03:39:11.953Z,25.66
2023-05-06T03:40:51.708Z,25.66
2023-05-06T03:42:31.477Z,25.66
2023-05-06T03:44:11.241Z,25.64
2023-05-06T03:45:51.032Z,25.67
2023-05-06T03:47:30.772Z,25.68
2023-05-06T03:49:10.544Z,25.68
2023-05-06T03:50:50.311Z,25.68
2023-05-06T03:52:30.080Z,25.69
2023-05-06T03:54:09.846Z,25.69
2023-05-06T03:55:49.622Z,25.7
2023-05-06T03:57:29.380Z,25.71
2023-05-06T03:59:09.163Z,25.71
2023-05-06T04:00:48.910Z,25.71
2023-05-06T04:02:28.683Z,25.72
2023-05-06T04:04:08.476Z,25.71
2023-05-06T04:05:48.214Z,25.72
2023-05-06T04:07:27.993Z,25.73
2023-05-06T04:09:07.751Z,25.74
2023-05-06T04:10:47.530Z,25.74
2023-05-06T04:12:27.284Z,25.76
2023-05-06T04:14:07.057Z,25.75
2023-05-06T04:15:46.828Z,25.77
2023-05-06T04:17:26.596Z,25.8
2023-05-06T04:19:06.364Z,25.82
2023-05-06T04:20:46.135Z,25.83
2023-05-06T04:22:25.901Z,25.83
2023-05-06T04:24:05.676Z,25.81
2023-05-06T04:25:45.451Z,25.84
2023-05-06T04:27:25.227Z,25.86
2023-05-06T04:29:04.990Z,25.87
2023-05-06T04:30:44.757Z,25.89
2023-05-06T04:32:24.529Z,25.89
2023-05-06T04:34:04.289Z,25.81
2023-05-06T04:35:44.058Z,25.93
2023-05-06T04:37:23.830Z,25.95
2023-05-06T04:39:03.614Z,25.97
2023-05-06T04:40:43.388Z,25.99
2023-05-06T04:42:23.161Z,25.99
2023-05-06T04:44:02.929Z,26
2023-05-06T04:45:42.691Z,26.04
2023-05-06T04:47:22.460Z,26.05
2023-05-06T04:49:02.226Z,26.09
2023-05-06T04:50:42.006Z,26.12
2023-05-06T04:52:21.764Z,26.16
2023-05-06T04:54:01.539Z,26.17
2023-05-06T04:55:41.321Z,26.2
2023-05-06T04:57:21.082Z,26.2
2023-05-06T04:59:00.860Z,26.2
2023-05-06T05:00:40.651Z,26.25
2023-05-06T05:02:20.408Z,26.29
2023-05-06T05:04:00.170Z,26.34
2023-05-06T05:05:39.951Z,26.39
2023-05-06T05:07:19.708Z,26.43
2023-05-06T05:08:59.480Z,26.48
2023-05-06T05:10:39.245Z,26.51
2023-05-06T05:12:19.006Z,26.55
2023-05-06T05:13:58.780Z,26.59
2023-05-06T05:15:38.562Z,26.62
2023-05-06T05:17:18.341Z,26.68
2023-05-06T05:18:58.091Z,26.91
2023-05-06T05:20:37.873Z,26.81
2023-05-06T05:22:17.640Z,26.8
2023-05-06T05:23:57.406Z,26.81
2023-05-06T05:25:37.211Z,26.8
2023-05-06T05:27:16.944Z,26.85
2023-05-06T05:28:56.734Z,26.87
2023-05-06T05:30:36.507Z,26.85
2023-05-06T05:32:16.257Z,26.86
2023-05-06T05:33:56.055Z,26.86
2023-05-06T05:35:35.828Z,26.85
2023-05-06T05:37:15.568Z,26.85
2023-05-06T05:38:55.337Z,26.86
2023-05-06T05:40:35.099Z,26.87
2023-05-06T05:42:14.883Z,26.89
2023-05-06T05:43:54.658Z,26.91
2023-05-06T05:45:34.421Z,26.93
2023-05-06T05:47:14.197Z,26.95
2023-05-06T05:48:53.958Z,26.97
2023-05-06T05:50:33.731Z,26.97
2023-05-06T05:52:13.498Z,26.86
2023-05-06T05:53:53.268Z,27
2023-05-06T05:55:33.036Z,27.02
2023-05-06T05:57:12.814Z,27.02
2023-05-06T05:58:52.583Z,27.02
2023-05-06T06:00:32.337Z,27.06
2023-05-06T06:02:12.122Z,27.09
2023-05-06T06:03:51.896Z,27.14
2023-05-06T06:05:31.666Z,27.15
2023-05-06T06:07:11.432Z,27.17
2023-05-06T06:08:51.210Z,27.21
2023-05-06T06:10:30.968Z,27.25
2023-05-06T06:12:10.736Z,27.27
2023-05-06T06:13:50.506Z,27.26
2023-05-06T06:15:30.285Z,27.28
2023-05-06T06:17:10.069Z,27.27
2023-05-06T06:18:49.812Z,27.5
2023-05-06T06:20:29.592Z,27.46
2023-05-06T06:22:09.367Z,27.38
2023-05-06T06:23:49.124Z,27.39
2023-05-06T06:25:28.908Z,27.4
2023-05-06T06:27:08.671Z,27.4
2023-05-06T06:28:48.455Z,27.41
2023-05-06T06:30:28.216Z,27.41
2023-05-06T06:32:07.982Z,27.42
2023-05-06T06:33:47.755Z,27.43
2023-05-06T06:35:27.533Z,27.43
2023-05-06T06:37:07.302Z,27.4
2023-05-06T06:38:47.069Z,27.41
2023-05-06T06:40:26.844Z,27.4
2023-05-06T06:42:06.604Z,27.39
2023-05-06T06:43:46.383Z,27.33
2023-05-06T06:45:26.151Z,27.36
2023-05-06T06:47:05.922Z,27.36
2023-05-06T06:48:45.684Z,27.34
2023-05-06T06:50:25.476Z,27.32
2023-05-06T06:52:05.219Z,27.31
2023-05-06T06:53:45.012Z,27.31
2023-05-06T06:55:24.771Z,27.29
2023-05-06T06:57:04.556Z,27.3
2023-05-06T06:58:44.317Z,27.3
2023-05-06T07:00:24.120Z,27.3
2023-05-06T07:02:03.858Z,27.31
2023-05-06T07:03:43.621Z,27.29
2023-05-06T07:05:23.398Z,27.3
2023-05-06T07:07:03.162Z,27.3
2023-05-06T07:08:42.940Z,27.35
2023-05-06T07:10:22.698Z,27.22
2023-05-06T07:12:02.468Z,27.43
2023-05-06T07:13:42.256Z,27.48
2023-05-06T07:15:22.027Z,27.53
2023-05-06T07:17:01.793Z,27.6
2023-05-06T07:18:41.555Z,27.69
2023-05-06T07:20:21.332Z,28.14
2023-05-06T07:22:01.097Z,27.85
2023-05-06T07:23:40.864Z,27.87
2023-05-06T07:25:20.641Z,27.88
2023-05-06T07:27:00.421Z,27.89
2023-05-06T07:28:40.194Z,27.91
2023-05-06T07:30:19.955Z,27.93
2023-05-06T07:31:59.718Z,27.94
2023-05-06T07:33:39.484Z,27.98
2023-05-06T07:35:19.256Z,27.97
2023-05-06T07:36:59.027Z,28
2023-05-06T07:38:38.815Z,28.01
2023-05-06T07:40:18.581Z,28
2023-05-06T07:41:58.337Z,28.02
2023-05-06T07:43:38.098Z,28.06
2023-05-06T07:45:17.889Z,28.06
2023-05-06T07:46:57.650Z,28.18
2023-05-06T07:48:37.430Z,28.24
2023-05-06T07:50:17.188Z,28.25
2023-05-06T07:51:56.971Z,28.31
2023-05-06T07:53:36.725Z,28.32
2023-05-06T07:55:16.515Z,28.29
2023-05-06T07:56:56.268Z,28.27
2023-05-06T07:58:36.026Z,28.33
2023-05-06T08:00:15.800Z,28.37
2023-05-06T08:01:55.591Z,28.2
2023-05-06T08:03:35.344Z,28.26
2023-05-06T08:05:15.117Z,28.22
2023-05-06T08:06:54.902Z,28.3
2023-05-06T08:08:34.658Z,28.34
2023-05-06T08:10:14.446Z,28.32
2023-05-06T08:11:54.195Z,28.35
2023-05-06T08:13:33.980Z,28.26
2023-05-06T08:15:13.741Z,28.13
2023-05-06T08:16:53.520Z,28.03
2023-05-06T08:18:35.209Z,28
2023-05-06T08:20:13.041Z,28.02
2023-05-06T08:21:52.823Z,28.06
2023-05-06T08:23:32.602Z,27.88
2023-05-06T08:25:12.376Z,27.85
2023-05-06T08:26:52.136Z,27.8
2023-05-06T08:28:31.900Z,27.82
2023-05-06T08:30:11.672Z,27.89
2023-05-06T08:31:51.446Z,27.9
2023-05-06T08:33:31.209Z,27.95
2023-05-06T08:35:10.992Z,28.05
2023-05-06T08:36:50.749Z,28.09
2023-05-06T08:38:30.527Z,28.16
2023-05-06T08:40:10.303Z,28.33
2023-05-06T08:41:50.070Z,28.42
2023-05-06T08:43:29.845Z,28.52
2023-05-06T08:45:09.604Z,28.58
2023-05-06T08:46:49.372Z,28.54
2023-05-06T08:48:29.145Z,28.45
2023-05-06T08:50:08.924Z,28.38
2023-05-06T08:51:48.685Z,28.41
2023-05-06T08:53:28.456Z,28.42
2023-05-06T08:55:08.243Z,28.42
2023-05-06T08:56:48.009Z,28.47
2023-05-06T08:58:27.772Z,28.49
2023-05-06T09:00:07.550Z,28.42
2023-05-06T09:01:47.329Z,28.5
2023-05-06T09:03:27.088Z,28.56
2023-05-06T09:05:06.861Z,28.53
2023-05-06T09:06:46.626Z,28.49
2023-05-06T09:08:26.390Z,28.42
2023-05-06T09:10:06.166Z,28.34
2023-05-06T09:11:45.939Z,28.43
2023-05-06T09:13:25.710Z,28.4
2023-05-06T09:15:05.472Z,28.4
2023-05-06T09:16:45.242Z,28.41
2023-05-06T09:18:25.041Z,28.64
2023-05-06T09:20:04.793Z,28.8
2023-05-06T09:21:44.555Z,29.15
2023-05-06T09:23:24.318Z,29.4
2023-05-06T09:25:04.106Z,29.4
2023-05-06T09:26:43.876Z,29.39
2023-05-06T09:28:23.643Z,29.39
2023-05-06T09:30:03.404Z,29.39
2023-05-06T09:31:43.175Z,29.4
2023-05-06T09:33:22.947Z,29.39
2023-05-06T09:35:02.717Z,29.38
2023-05-06T09:36:42.485Z,29.39
2023-05-06T09:38:22.258Z,29.39
2023-05-06T09:40:02.062Z,29.39
2023-05-06T09:41:41.797Z,29.38
2023-05-06T09:43:21.574Z,29.37
2023-05-06T09:45:01.344Z,29.36
2023-05-06T09:46:41.101Z,29.39
2023-05-06T09:48:20.882Z,29.4
2023-05-06T09:50:00.656Z,29.38
2023-05-06T09:51:40.432Z,29.38
2023-05-06T09:53:20.183Z,29.39
2023-05-06T09:54:59.975Z,29.38
2023-05-06T09:56:39.740Z,29.38
2023-05-06T09:58:19.501Z,29.38
2023-05-06T09:59:59.272Z,29.37
2023-05-06T10:01:39.059Z,29.38
2023-05-06T10:03:18.810Z,29.37
2023-05-06T10:04:58.593Z,29.37
2023-05-06T10:06:38.350Z,29.36
2023-05-06T10:08:18.113Z,29.36
2023-05-06T10:09:57.891Z,29.37
2023-05-06T10:11:37.675Z,29.28
2023-05-06T10:13:17.433Z,29.38
2023-05-06T10:14:57.222Z,29.37
2023-05-06T10:16:36.978Z,29.37
2023-05-06T10:18:16.744Z,29.37
2023-05-06T10:19:56.519Z,29.37
2023-05-06T10:21:36.278Z,29.37
2023-05-06T10:23:16.050Z,29.37
2023-05-06T10:24:55.826Z,29.36
2023-05-06T10:26:35.601Z,29.36
2023-05-06T10:28:15.377Z,29.36
2023-05-06T10:29:55.130Z,29.36
2023-05-06T10:31:34.911Z,29.36
2023-05-06T10:33:14.668Z,29.36
2023-05-06T10:34:54.437Z,29.36
2023-05-06T10:36:34.221Z,29.34
2023-05-06T10:38:13.989Z,29.3
2023-05-06T10:39:53.762Z,29.37
2023-05-06T10:41:33.527Z,29.37
2023-05-06T10:43:13.304Z,29.36
2023-05-06T10:44:53.065Z,29.36
2023-05-06T10:46:32.854Z,29.36
2023-05-06T10:48:12.615Z,29.37
2023-05-06T10:49:52.374Z,29.36
2023-05-06T10:51:32.146Z,29.36
2023-05-06T10:53:11.922Z,29.37
2023-05-06T10:54:51.701Z,29.36
2023-05-06T10:56:31.457Z,29.37
2023-05-06T10:58:11.232Z,29.36
2023-05-06T10:59:50.994Z,29.36
2023-05-06T11:01:30.768Z,29.35
2023-05-06T11:03:10.557Z,29.34
2023-05-06T11:04:50.311Z,29.37
2023-05-06T11:06:30.083Z,29.36
2023-05-06T11:08:09.880Z,29.37
2023-05-06T11:09:49.624Z,29.37
2023-05-06T11:11:29.389Z,29.37
2023-05-06T11:13:09.159Z,29.36
2023-05-06T11:14:48.941Z,29.36
2023-05-06T11:16:28.707Z,29.37
2023-05-06T11:18:08.477Z,29.37
2023-05-06T11:19:48.252Z,29.36
2023-05-06T11:21:28.015Z,29.36
2023-05-06T11:23:07.782Z,29.37
2023-05-06T11:24:47.557Z,29.37
2023-05-06T11:26:27.336Z,29.36
2023-05-06T11:28:07.112Z,29.36
2023-05-06T11:29:46.863Z,29.25
2023-05-06T11:31:26.644Z,29.37
2023-05-06T11:33:06.400Z,29.37
2023-05-06T11:34:46.173Z,29.37
2023-05-06T11:36:25.945Z,29.37
2023-05-06T11:38:05.734Z,29.36
2023-05-06T11:39:45.489Z,29.37
2023-05-06T11:41:25.269Z,29.37
2023-05-06T11:43:05.032Z,29.35
2023-05-06T11:44:44.799Z,29.36
2023-05-06T11:46:24.579Z,29.36
2023-05-06T11:48:04.366Z,29.36
2023-05-06T11:49:44.104Z,29.37
2023-05-06T11:51:23.888Z,29.36
2023-05-06T11:53:03.661Z,29.36
2023-05-06T11:54:43.447Z,29.35
2023-05-06T11:56:23.196Z,29.32
2023-05-06T11:58:02.965Z,29.37
2023-05-06T11:59:42.743Z,29.37
2023-05-06T12:01:22.504Z,29.37
2023-05-06T12:03:02.289Z,29.36
2023-05-06T12:04:42.051Z,29.38
2023-05-06T12:06:21.808Z,29.36
2023-05-06T12:08:01.579Z,29.36
2023-05-06T12:09:41.359Z,29.37
2023-05-06T12:11:21.147Z,29.37
2023-05-06T12:13:00.900Z,29.36
2023-05-06T12:14:40.678Z,29.36
2023-05-06T12:16:20.426Z,29.36
2023-05-06T12:18:00.200Z,29.37
2023-05-06T12:19:39.969Z,29.35
2023-05-06T12:21:19.746Z,28.26
2023-05-06T12:22:59.515Z,27.93
2023-05-06T12:24:39.281Z,27.8
2023-05-06T12:26:19.051Z,27.71
2023-05-06T12:27:58.819Z,27.64
2023-05-06T12:29:38.596Z,27.58
2023-05-06T12:31:18.365Z,27.51
2023-05-06T12:32:58.130Z,27.56
2023-05-06T12:34:37.902Z,27.56
2023-05-06T12:36:17.680Z,27.57
2023-05-06T12:37:57.452Z,27.56
2023-05-06T12:39:37.218Z,27.56
2023-05-06T12:41:17.015Z,27.57
2023-05-06T12:42:56.757Z,27.57
2023-05-06T12:44:36.562Z,27.56
2023-05-06T12:46:16.294Z,27.55
2023-05-06T12:47:56.080Z,27.38
2023-05-06T12:49:35.856Z,27.55
2023-05-06T12:51:15.620Z,27.56
2023-05-06T12:52:55.380Z,27.56
2023-05-06T12:54:35.149Z,27.57
2023-05-06T12:56:14.926Z,27.57
2023-05-06T12:57:54.689Z,27.56
2023-05-06T12:59:34.477Z,27.56
2023-05-06T13:01:14.231Z,27.55
2023-05-06T13:02:53.994Z,27.56
2023-05-06T13:04:33.788Z,27.57
2023-05-06T13:06:13.538Z,27.56
2023-05-06T13:07:53.325Z,27.56
2023-05-06T13:09:33.098Z,27.56
2023-05-06T13:11:12.858Z,27.56
2023-05-06T13:12:52.630Z,27.54
2023-05-06T13:14:32.400Z,27.55
2023-05-06T13:16:12.154Z,27.57
2023-05-06T13:17:51.947Z,27.56
2023-05-06T13:19:31.707Z,27.57
2023-05-06T13:21:11.477Z,27.56
2023-05-06T13:22:51.257Z,27.56
2023-05-06T13:24:31.006Z,27.56
2023-05-06T13:26:10.795Z,27.55
2023-05-06T13:27:50.567Z,27.55
2023-05-06T13:29:30.380Z,27.56
2023-05-06T13:31:10.105Z,27.56
2023-05-06T13:32:49.885Z,27.56
2023-05-06T13:34:29.645Z,27.56
2023-05-06T13:36:09.399Z,27.56
2023-05-06T13:37:49.181Z,27.56
2023-05-06T13:39:28.940Z,27.54
2023-05-06T13:41:08.713Z,27.56
2023-05-06T13:42:48.493Z,27.57
2023-05-06T13:44:28.255Z,27.57
2023-05-06T13:46:08.047Z,27.57
2023-05-06T13:47:47.806Z,27.57
2023-05-06T13:49:27.582Z,27.58
2023-05-06T13:51:07.366Z,27.57
2023-05-06T13:52:47.120Z,27.57
2023-05-06T13:54:26.895Z,27.56
2023-05-06T13:56:06.649Z,27.57
2023-05-06T13:57:46.434Z,27.57
2023-05-06T13:59:26.204Z,27.57
2023-05-06T14:01:05.963Z,27.57
2023-05-06T14:02:45.748Z,27.55
2023-05-06T14:04:25.490Z,27.56
2023-05-06T14:06:05.280Z,27.42
2023-05-06T14:07:45.057Z,27.57
2023-05-06T14:09:24.821Z,27.55
2023-05-06T14:11:04.578Z,27.57
2023-05-06T14:12:44.357Z,27.57
2023-05-06T14:14:24.115Z,27.56
2023-05-06T14:16:03.888Z,27.57
2023-05-06T14:17:43.657Z,27.57
2023-05-06T14:19:23.440Z,27.57
2023-05-06T14:21:03.209Z,27.57
2023-05-06T14:22:42.991Z,27.56
2023-05-06T14:24:22.736Z,27.56
2023-05-06T14:26:02.519Z,27.55
2023-05-06T14:27:42.292Z,27.55
2023-05-06T14:29:22.055Z,27.56
2023-05-06T14:31:01.826Z,27.56
2023-05-06T14:32:41.606Z,27.57
2023-05-06T14:34:21.375Z,27.55
2023-05-06T14:36:01.129Z,27.57
2023-05-06T14:37:40.917Z,27.55
2023-05-06T14:39:20.733Z,27.56
2023-05-06T14:41:00.452Z,27.56
2023-05-06T14:42:40.214Z,27.57
2023-05-06T14:44:19.992Z,27.57
2023-05-06T14:45:59.758Z,27.56
2023-05-06T14:47:39.539Z,27.57
2023-05-06T14:49:19.303Z,27.56
2023-05-06T14:50:59.080Z,27.57
2023-05-06T14:52:38.843Z,27.58
2023-05-06T14:54:18.622Z,27.57
2023-05-06T14:55:58.391Z,27.57
2023-05-06T14:57:38.234Z,27.51
2023-05-06T14:59:17.930Z,27.58
2023-05-06T15:00:57.720Z,27.58
2023-05-06T15:02:37.459Z,27.57
2023-05-06T15:04:17.241Z,27.56
2023-05-06T15:05:57.042Z,27.57
2023-05-06T15:07:36.783Z,27.56
2023-05-06T15:09:16.557Z,27.58
2023-05-06T15:10:56.324Z,27.57
2023-05-06T15:12:36.078Z,27.56
2023-05-06T15:14:15.860Z,27.57
2023-05-06T15:15:55.642Z,27.58
2023-05-06T15:17:35.408Z,27.56
2023-05-06T15:19:15.178Z,27.56
2023-05-06T15:20:54.950Z,27.58
2023-05-06T15:22:34.725Z,27.56
2023-05-06T15:24:14.490Z,27.45
2023-05-06T15:25:54.257Z,27.56
2023-05-06T15:27:34.025Z,27.57
2023-05-06T15:29:13.796Z,27.58
2023-05-06T15:30:53.556Z,27.58
2023-05-06T15:32:33.329Z,27.58
2023-05-06T15:34:13.107Z,27.57
2023-05-06T15:35:52.874Z,27.58
2023-05-06T15:37:32.632Z,27.58
2023-05-06T15:39:12.431Z,27.57
2023-05-06T15:40:52.189Z,27.56
2023-05-06T15:42:31.952Z,27.57
2023-05-06T15:44:11.729Z,27.58
2023-05-06T15:45:51.497Z,27.57
2023-05-06T15:47:31.279Z,27.57
2023-05-06T15:49:11.024Z,27.54
2023-05-06T15:50:50.817Z,27.57
2023-05-06T15:52:30.580Z,27.57
2023-05-06T15:54:10.335Z,27.58
2023-05-06T15:55:50.135Z,27.56
2023-05-06T15:57:29.875Z,27.57
2023-05-06T15:59:09.662Z,27.58
2023-05-06T16:00:49.417Z,27.57
2023-05-06T16:02:29.182Z,27.56
2023-05-06T16:04:08.962Z,27.58
2023-05-06T16:05:48.760Z,27.58
2023-05-06T16:07:28.508Z,27.57
2023-05-06T16:09:08.265Z,27.57
2023-05-06T16:10:48.049Z,27.58
2023-05-06T16:12:27.807Z,27.58
2023-05-06T16:14:07.579Z,27.56
2023-05-06T16:15:47.355Z,27.43
2023-05-06T16:17:27.128Z,27.58
2023-05-06T16:19:06.895Z,27.56
2023-05-06T16:20:46.660Z,27.58
2023-05-06T16:22:26.431Z,27.58
2023-05-06T16:24:06.198Z,27.57
2023-05-06T16:25:45.999Z,27.57
2023-05-06T16:27:25.744Z,27.57
2023-05-06T16:29:05.526Z,27.59
2023-05-06T16:30:45.287Z,27.58
2023-05-06T16:32:25.059Z,27.57
2023-05-06T16:34:04.828Z,27.57
2023-05-06T16:35:44.610Z,27.58
2023-05-06T16:37:24.348Z,27.57
2023-05-06T16:39:04.135Z,27.57
2023-05-06T16:40:43.894Z,27.56
2023-05-06T16:42:23.669Z,27.58
2023-05-06T16:44:03.474Z,27.57
2023-05-06T16:45:43.207Z,27.58
2023-05-06T16:47:23.027Z,27.56
2023-05-06T16:49:02.755Z,27.56
2023-05-06T16:50:42.521Z,27.58
2023-05-06T16:52:22.332Z,27.57
2023-05-06T16:54:02.066Z,27.57
2023-05-06T16:55:41.830Z,27.56
2023-05-06T16:57:21.606Z,27.57
2023-05-06T16:59:01.372Z,27.56
2023-05-06T17:00:41.158Z,27.55
2023-05-06T17:02:20.925Z,27.48
2023-05-06T17:04:00.697Z,27.49
2023-05-06T17:05:40.464Z,27.44
2023-05-06T17:07:20.243Z,27.29
2023-05-06T17:08:59.983Z,27.4
2023-05-06T17:10:39.773Z,27.38
2023-05-06T17:12:19.547Z,27.36
2023-05-06T17:13:59.310Z,27.34
2023-05-06T17:15:39.076Z,27.28
2023-05-06T17:17:18.846Z,27.24
2023-05-06T17:18:58.617Z,27.21
2023-05-06T17:20:38.391Z,27.17
2023-05-06T17:22:18.162Z,27.16
2023-05-06T17:23:57.966Z,27.13
2023-05-06T17:25:37.826Z,27.1
2023-05-06T17:27:17.587Z,27.09
2023-05-06T17:28:57.422Z,27.07
2023-05-06T17:30:37.110Z,27.06
2023-05-06T17:32:16.846Z,27.02
2023-05-06T17:33:56.712Z,26.99
2023-05-06T17:35:36.399Z,26.99
2023-05-06T17:37:16.287Z,26.95
2023-05-06T17:38:56.036Z,26.92
2023-05-06T17:40:35.772Z,26.88
2023-05-06T17:42:15.537Z,26.86
2023-05-06T17:43:55.216Z,26.83
2023-05-06T17:45:35.085Z,26.81
2023-05-06T17:47:14.783Z,26.78
2023-05-06T17:48:54.581Z,26.76
2023-05-06T17:50:34.385Z,26.74
2023-05-06T17:52:14.143Z,26.74
2023-05-06T17:53:53.937Z,26.72
2023-05-06T17:55:33.661Z,26.71
2023-05-06T17:57:13.464Z,26.7
2023-05-06T17:58:53.232Z,26.62
2023-05-06T18:00:33.020Z,26.67
2023-05-06T18:02:12.844Z,26.65
2023-05-06T18:03:52.506Z,26.64
2023-05-06T18:05:32.233Z,26.62
2023-05-06T18:07:12.107Z,26.61
2023-05-06T18:08:51.809Z,26.6
2023-05-06T18:10:31.647Z,26.58
2023-05-06T18:12:11.367Z,26.57
2023-05-06T18:13:51.136Z,26.55
2023-05-06T18:15:30.973Z,26.53
2023-05-06T18:17:10.686Z,26.52
2023-05-06T18:18:50.278Z,26.49
2023-05-06T18:20:30.273Z,26.48
2023-05-06T18:22:09.968Z,26.45
2023-05-06T18:23:49.749Z,26.34
2023-05-06T18:25:29.526Z,26.42
2023-05-06T18:27:09.319Z,26.41
2023-05-06T18:28:49.031Z,26.39
2023-05-06T18:30:28.841Z,26.38
2023-05-06T18:32:08.517Z,26.35
2023-05-06T18:33:48.441Z,26.34
2023-05-06T18:35:28.185Z,26.33
2023-05-06T18:37:07.892Z,26.32
2023-05-06T18:38:47.699Z,26.29
2023-05-06T18:40:27.258Z,26.28
2023-05-06T18:42:07.197Z,26.26
2023-05-06T18:43:47.000Z,26.26
2023-05-06T18:45:26.565Z,26.25
2023-05-06T18:47:06.522Z,26.22
2023-05-06T18:48:46.200Z,26.19
2023-05-06T18:50:26.035Z,26.21
2023-05-06T18:52:05.854Z,26.2
2023-05-06T18:53:45.543Z,26.2
2023-05-06T18:55:25.324Z,26.2
2023-05-06T18:57:05.113Z,26.19
2023-05-06T18:58:44.863Z,26.18
2023-05-06T19:00:24.660Z,26.18
2023-05-06T19:02:04.406Z,26.17
2023-05-06T19:03:44.186Z,26.17
2023-05-06T19:05:23.912Z,26.16
2023-05-06T19:07:03.735Z,26.16
2023-05-06T19:08:43.438Z,26.15
2023-05-06T19:10:23.132Z,26.14
2023-05-06T19:12:03.089Z,26.14
2023-05-06T19:13:42.821Z,26.14
2023-05-06T19:15:22.480Z,26.13
2023-05-06T19:17:02.356Z,26.13
2023-05-06T19:18:42.163Z,26.12
2023-05-06T19:20:21.832Z,26.12
2023-05-06T19:22:01.624Z,26.12
2023-05-06T19:23:41.210Z,26.11
2023-05-06T19:25:21.167Z,26.1
2023-05-06T19:27:00.944Z,26.1
2023-05-06T19:28:40.704Z,26.1
2023-05-06T19:30:20.481Z,26.09
2023-05-06T19:32:00.275Z,26.09
2023-05-06T19:33:40.083Z,26.09
2023-05-06T19:35:19.772Z,26.09
2023-05-06T19:36:59.534Z,26.08
2023-05-06T19:38:39.337Z,26.08
2023-05-06T19:40:19.069Z,26.08
2023-05-06T19:41:58.871Z,26.08
2023-05-06T19:43:38.463Z,26.08
2023-05-06T19:45:18.323Z,26.07
2023-05-06T19:46:57.964Z,26.07
2023-05-06T19:48:37.902Z,26.07
2023-05-06T19:50:17.637Z,26.07
2023-05-06T19:51:57.427Z,26.06
2023-05-06T19:53:37.246Z,26.05
2023-05-06T19:55:16.938Z,26.06
2023-05-06T19:56:56.730Z,26.05
2023-05-06T19:58:36.501Z,26.05
2023-05-06T20:00:16.269Z,26.05
2023-05-06T20:01:55.870Z,26.04
2023-05-06T20:03:35.858Z,26.05
2023-05-06T20:05:15.616Z,26.04
2023-05-06T20:06:55.164Z,26.04
2023-05-06T20:08:35.184Z,26.04
2023-05-06T20:10:14.887Z,26.04
2023-05-06T20:11:54.650Z,26.04
2023-05-06T20:13:34.422Z,26.03
2023-05-06T20:15:14.174Z,26.03
2023-05-06T20:16:53.979Z,26.03
2023-05-06T20:18:33.589Z,26.03
2023-05-06T20:20:13.433Z,26.02
2023-05-06T20:21:53.206Z,26.02
2023-05-06T20:23:33.059Z,26.02
2023-05-06T20:25:12.651Z,26.02
2023-05-06T20:26:52.389Z,26.01
2023-05-06T20:28:32.353Z,26.02
2023-05-06T20:30:12.017Z,26.02
2023-05-06T20:31:51.854Z,26.02
2023-05-06T20:33:31.543Z,26.01
2023-05-06T20:35:11.422Z,26.01
2023-05-06T20:36:51.177Z,26.01
2023-05-06T20:38:30.989Z,26.01
2023-05-06T20:40:10.661Z,26.01
2023-05-06T20:41:50.479Z,26
2023-05-06T20:43:30.272Z,26
2023-05-06T20:45:09.903Z,26
2023-05-06T20:46:49.755Z,26
2023-05-06T20:48:29.463Z,25.99
2023-05-06T20:50:09.363Z,25.99
2023-05-06T20:51:49.067Z,25.97
2023-05-06T20:53:28.808Z,25.99
2023-05-06T20:55:08.633Z,25.99
2023-05-06T20:56:48.173Z,25.99
2023-05-06T20:58:28.169Z,25.99
2023-05-06T21:00:07.881Z,25.99
2023-05-06T21:01:47.530Z,25.99
2023-05-06T21:03:27.443Z,25.99
2023-05-06T21:05:07.030Z,25.98
2023-05-06T21:06:46.946Z,25.98
2023-05-06T21:08:26.826Z,25.98
2023-05-06T21:10:06.509Z,25.98
2023-05-06T21:11:46.315Z,25.97
2023-05-06T21:13:26.056Z,25.97
2023-05-06T21:15:05.623Z,25.97
2023-05-06T21:16:45.560Z,25.95
2023-05-06T21:18:25.283Z,25.97
2023-05-06T21:20:05.098Z,25.97
2023-05-06T21:21:44.869Z,25.96
2023-05-06T21:23:24.626Z,25.97
2023-05-06T21:25:04.236Z,25.96
2023-05-06T21:26:44.011Z,25.96
2023-05-06T21:28:23.879Z,25.96
2023-05-06T21:30:03.712Z,25.96